Time;durP1;ratioP1;P1;durP2;ratioP2;P2;SDS_P1;SDS_P2;PMS_P1;PMS_P2;Temp;Humidity;BMP_temperature;BMP_pressure;BME280_temperature;BME280_humidity;BME280_pressure;Samples;Min_cycle;Max_cycle;Signal;HPM_P1;HPM_P2
2022/06/14 00:00:56;;;;;;;5.85;2.75;;;10.70;99.90;;;;;;5012895;28;20112;-73
2022/06/14 00:03:37;;;;;;;3.65;3.00;;;10.80;99.90;;;;;;5013351;28;20026;-72
2022/06/14 00:06:06;;;;;;;5.57;3.35;;;10.90;99.90;;;;;;5013013;28;20132;-72
2022/06/14 00:08:34;;;;;;;4.03;3.30;;;10.80;99.90;;;;;;5013087;28;20105;-73
2022/06/14 00:11:07;;;;;;;4.18;2.90;;;11.00;99.90;;;;;;5014745;28;20022;-72
2022/06/14 00:13:34;;;;;;;4.65;3.22;;;11.10;99.90;;;;;;5014803;28;20486;-73
2022/06/14 00:16:02;;;;;;;5.57;2.70;;;11.20;99.90;;;;;;5015075;28;20033;-73
2022/06/14 00:18:29;;;;;;;5.55;3.00;;;11.30;99.90;;;;;;5014728;28;20386;-72
2022/06/14 00:20:57;;;;;;;4.72;2.53;;;11.30;99.90;;;;;;5013167;28;20485;-74
2022/06/14 00:23:25;;;;;;;4.82;3.28;;;11.30;99.90;;;;;;5014661;28;20474;-74
2022/06/14 00:25:55;;;;;;;5.25;2.28;;;11.30;99.90;;;;;;5013400;28;20486;-73
2022/06/14 00:28:25;;;;;;;5.78;2.83;;;11.40;99.90;;;;;;5013165;28;20032;-73
2022/06/14 00:30:56;;;;;;;4.32;2.38;;;11.50;99.90;;;;;;5013102;28;20026;-73
2022/06/14 00:33:24;;;;;;;6.10;3.08;;;11.60;99.90;;;;;;5013089;28;20028;-73
2022/06/14 00:36:03;;;;;;;8.05;3.72;;;11.80;99.90;;;;;;5014201;28;20030;-73
2022/06/14 00:38:34;;;;;;;3.50;2.38;;;11.70;99.90;;;;;;5012929;28;20022;-73
2022/06/14 00:41:01;;;;;;;;;;;11.80;99.90;;;;;;5014693;28;20481;-73
2022/06/14 00:43:33;;;;;;;5.95;2.88;;;12.00;99.90;;;;;;5013039;28;20008;-74
2022/06/14 00:46:06;;;;;;;5.25;3.47;;;12.10;99.90;;;;;;5012780;28;20021;-74
2022/06/14 00:48:35;;;;;;;5.57;3.17;;;12.20;99.90;;;;;;5014001;28;20045;-73
2022/06/14 00:51:18;;;;;;;4.65;2.78;;;12.20;99.90;;;;;;4996139;28;20053;-74
2022/06/14 00:54:01;;;;;;;5.35;2.50;;;12.40;99.90;;;;;;5013317;28;20494;-73
2022/06/14 00:56:35;;;;;;;8.85;2.65;;;12.40;99.90;;;;;;5012729;28;20121;-74
2022/06/14 00:59:09;;;;;;;3.95;2.47;;;12.50;99.90;;;;;;5012516;28;20042;-73
2022/06/14 01:01:40;;;;;;;5.03;2.95;;;12.60;99.90;;;;;;5012582;28;20029;-73
2022/06/14 01:04:17;;;;;;;3.50;2.80;;;12.60;99.90;;;;;;5012612;28;20109;-74
2022/06/14 01:06:48;;;;;;;4.03;3.13;;;12.80;99.90;;;;;;5013743;28;20077;-74
2022/06/14 01:09:23;;;;;;;3.75;2.97;;;13.00;99.90;;;;;;5012462;28;20049;-74
2022/06/14 01:11:55;;;;;;;3.40;2.40;;;13.00;99.90;;;;;;5013706;28;20026;-75
2022/06/14 01:14:30;;;;;;;7.18;2.95;;;13.20;99.90;;;;;;5012443;28;20482;-73
2022/06/14 01:16:58;;;;;;;5.20;3.15;;;13.20;99.90;;;;;;5012265;28;20022;-73
2022/06/14 01:19:27;;;;;;;4.15;3.00;;;13.30;99.90;;;;;;5013541;28;20029;-73
2022/06/14 01:22:03;;;;;;;4.78;3.25;;;13.30;99.90;;;;;;5013568;28;20072;-74
2022/06/14 01:24:31;;;;;;;4.45;2.85;;;13.40;99.90;;;;;;5011999;28;20022;-73
2022/06/14 01:27:00;;;;;;;5.53;2.50;;;13.60;99.90;;;;;;5013464;28;20022;-75
2022/06/14 01:29:29;;;;;;;4.78;2.70;;;13.70;99.90;;;;;;5013444;28;20025;-74
2022/06/14 01:32:00;;;;;;;5.38;2.45;;;13.70;99.90;;;;;;5013668;28;20022;-74
2022/06/14 01:34:30;;;;;;;4.50;2.25;;;13.90;99.90;;;;;;5011997;28;20026;-75
2022/06/14 01:37:00;;;;;;;3.28;2.10;;;13.90;99.90;;;;;;5012070;28;20034;-75
2022/06/14 01:39:28;;;;;;;5.63;2.50;;;13.90;99.90;;;;;;5011781;28;20076;-74
2022/06/14 01:42:28;;;;;;;2.45;1.92;;;14.00;99.90;;;;;;5013779;28;20021;-74
2022/06/14 01:45:01;;;;;;;4.45;1.58;;;14.10;99.90;;;;;;5013249;28;20029;-74
2022/06/14 01:47:32;;;;;;;1.52;1.30;;;14.30;99.90;;;;;;5011603;28;20026;-74
2022/06/14 01:53:43;;;;;;;2.50;1.40;;;14.50;99.90;;;;;;5013377;28;20048;-74
2022/06/14 01:56:52;;;;;;;4.85;1.40;;;14.70;99.90;;;;;;5012991;28;20532;-74
2022/06/14 01:59:22;;;;;;;3.42;1.17;;;14.90;99.90;;;;;;5011334;28;20034;-74
2022/06/14 02:02:02;;;;;;;3.00;1.42;;;15.00;99.90;;;;;;5011864;28;20120;-74
2022/06/14 02:04:40;;;;;;;3.20;1.40;;;15.10;99.90;;;;;;5013314;28;20029;-74
2022/06/14 02:07:31;;;;;;;2.28;1.65;;;15.00;99.90;;;;;;5013216;28;20029;-75
2022/06/14 02:10:05;;;;;;;4.40;1.50;;;15.10;99.90;;;;;;5013520;28;20421;-74
2022/06/14 02:12:58;;;;;;;1.85;1.00;;;15.30;99.90;;;;;;5013021;28;20041;-74
2022/06/14 02:15:46;;;;;;;4.05;1.35;;;15.40;99.90;;;;;;5011521;28;20069;-74
2022/06/14 02:18:14;;;;;;;2.05;0.80;;;15.50;99.90;;;;;;5011936;28;20048;-74
2022/06/14 02:20:59;;;;;;;2.83;1.17;;;15.60;99.90;;;;;;5011375;28;20080;-74
2022/06/14 02:23:32;;;;;;;2.60;1.10;;;15.60;99.90;;;;;;5011681;28;20026;-74
2022/06/14 02:26:06;;;;;;;1.55;1.10;;;15.70;99.90;;;;;;5011520;28;20114;-74
2022/06/14 02:28:55;;;;;;;2.38;1.10;;;15.70;99.90;;;;;;5013234;28;20018;-74
2022/06/14 02:31:38;;;;;;;2.65;1.20;;;15.60;99.90;;;;;;5012819;28;20494;-75
2022/06/14 02:34:13;;;;;;;1.85;1.20;;;15.50;99.90;;;;;;5012795;28;20022;-74
2022/06/14 02:36:50;;;;;;;2.25;1.00;;;15.70;99.90;;;;;;5011518;28;20022;-75
2022/06/14 02:39:22;;;;;;;3.10;1.20;;;15.80;99.90;;;;;;5011310;28;20033;-75
2022/06/14 02:41:56;;;;;;;3.10;1.20;;;15.70;99.90;;;;;;5012744;28;20536;-75
2022/06/14 02:44:40;;;;;;;2.00;0.63;;;15.90;99.90;;;;;;5011272;28;20026;-74
2022/06/14 02:47:33;;;;;;;2.53;0.63;;;16.00;99.90;;;;;;5012929;28;20492;-75
2022/06/14 02:50:19;;;;;;;2.08;0.60;;;16.20;99.90;;;;;;5012696;28;20413;-76
2022/06/14 02:53:24;;;;;;;2.25;0.85;;;16.40;99.90;;;;;;5011154;28;20050;-75
2022/06/14 02:56:17;;;;;;;2.78;1.20;;;16.40;99.90;;;;;;5012296;28;20037;-75
2022/06/14 02:59:08;;;;;;;2.22;1.00;;;16.50;99.90;;;;;;5012152;28;20100;-75
2022/06/14 03:01:59;;;;;;;2.03;0.80;;;16.50;99.90;;;;;;5014811;28;20133;-75
2022/06/14 03:04:36;;;;;;;;;;;16.60;99.90;;;;;;5000210;28;20034;-75
2022/06/14 03:07:16;;;;;;;1.63;0.70;;;16.70;99.90;;;;;;5016019;28;19935;-76
2022/06/14 03:09:45;;;;;;;1.83;0.60;;;16.80;99.90;;;;;;5016091;28;20110;-75
2022/06/14 03:12:51;;;;;;;1.37;0.60;;;16.80;99.90;;;;;;5015902;28;20100;-75
2022/06/14 03:15:32;;;;;;;0.70;0.50;;;16.90;99.90;;;;;;4946194;28;20516;-76
2022/06/14 03:18:30;;;;;;;1.52;0.70;;;17.00;99.90;;;;;;5014506;28;20474;-75
2022/06/14 03:21:29;;;;;;;2.50;0.70;;;17.00;99.90;;;;;;5014373;28;20375;-75
2022/06/14 03:24:16;;;;;;;1.05;0.50;;;17.00;99.90;;;;;;5013760;28;20096;-75
2022/06/14 03:27:18;;;;;;;1.85;0.60;;;17.00;99.90;;;;;;5014297;28;20513;-75
2022/06/14 03:29:56;;;;;;;0.95;0.50;;;16.90;99.90;;;;;;4985488;28;20064;-74
2022/06/14 03:32:32;;;;;;;1.25;0.50;;;17.00;99.90;;;;;;5015678;28;20022;-75
2022/06/14 03:35:22;;;;;;;1.48;0.50;;;17.00;99.90;;;;;;5014202;28;20544;-75
2022/06/14 03:37:50;;;;;;;1.13;0.55;;;17.00;99.90;;;;;;5015331;28;20026;-75
2022/06/14 03:40:20;;;;;;;1.05;0.65;;;16.90;99.90;;;;;;5015288;28;20056;-75
2022/06/14 03:42:48;;;;;;;1.45;0.40;;;17.00;99.90;;;;;;5013695;28;20096;-75
2022/06/14 03:45:20;;;;;;;0.85;0.40;;;17.10;99.90;;;;;;5015178;28;20030;-75
2022/06/14 03:47:47;;;;;;;1.13;0.43;;;17.00;99.90;;;;;;5015191;28;20022;-75
2022/06/14 03:50:35;;;;;;;1.00;0.50;;;17.00;99.90;;;;;;5014030;28;20431;-75
2022/06/14 03:53:15;;;;;;;1.05;0.65;;;16.90;99.90;;;;;;4997417;28;20049;-76
2022/06/14 03:56:00;;;;;;;1.90;0.50;;;16.90;99.90;;;;;;5013484;28;20375;-75
2022/06/14 03:58:58;;;;;;;2.40;0.57;;;16.90;99.90;;;;;;5015609;28;20026;-76
2022/06/14 04:01:31;;;;;;;4.28;0.60;;;16.90;99.90;;;;;;5014920;28;20034;-75
2022/06/14 04:04:25;;;;;;;2.30;0.50;;;16.90;99.90;;;;;;5013479;28;20026;-75
2022/06/14 04:06:55;;;;;;;1.80;0.47;;;16.90;99.90;;;;;;5013319;28;20033;-76
2022/06/14 04:09:39;;;;;;;1.23;0.40;;;16.90;99.90;;;;;;5015034;28;20036;-75
2022/06/14 04:12:30;;;;;;;0.75;0.35;;;16.80;99.90;;;;;;5013332;28;20157;-75
2022/06/14 04:15:04;;;;;;;0.73;0.28;;;16.70;99.90;;;;;;5014833;28;20041;-75
2022/06/14 04:17:45;;;;;;;1.42;0.38;;;16.70;99.90;;;;;;5013223;28;20363;-75
2022/06/14 04:20:50;;;;;;;0.60;0.30;;;16.80;99.90;;;;;;5014933;28;20029;-75
2022/06/14 04:23:45;;;;;;;1.15;0.30;;;16.70;99.90;;;;;;4997667;28;20030;-74
2022/06/14 04:26:37;;;;;;;0.70;0.22;;;16.70;99.90;;;;;;5014716;28;20026;-75
2022/06/14 04:29:14;;;;;;;0.75;0.20;;;16.70;99.90;;;;;;4974969;28;20038;-76
2022/06/14 04:31:48;;;;;;;2.25;0.50;;;16.70;99.90;;;;;;5013086;28;20026;-75
2022/06/14 04:34:55;;;;;;;0.95;0.30;;;16.70;99.90;;;;;;5013003;28;20029;-76
2022/06/14 04:37:31;;;;;;;1.42;0.30;;;16.70;99.90;;;;;;4934417;29;20039;-75
2022/06/14 04:40:12;;;;;;;1.40;0.32;;;16.60;99.90;;;;;;5003819;28;20034;-75
2022/06/14 04:42:48;;;;;;;1.25;0.22;;;16.50;99.90;;;;;;5013316;28;20141;-74
2022/06/14 04:45:41;;;;;;;1.25;0.30;;;16.50;99.90;;;;;;5012692;28;20109;-75
2022/06/14 04:48:22;;;;;;;1.35;0.30;;;16.40;99.90;;;;;;5012604;28;20022;-75
2022/06/14 04:51:05;;;;;;;1.63;0.40;;;16.40;99.90;;;;;;5013934;28;20131;-75
2022/06/14 04:53:47;;;;;;;1.48;0.50;;;16.30;99.90;;;;;;5013894;28;20494;-75
2022/06/14 04:56:33;;;;;;;1.40;0.30;;;16.30;99.90;;;;;;5014040;28;20084;-75
2022/06/14 04:59:11;;;;;;;1.75;0.28;;;16.20;99.90;;;;;;5013822;28;20026;-76
2022/06/14 05:01:51;;;;;;;0.70;0.30;;;16.10;99.90;;;;;;5014066;28;20018;-74
2022/06/14 05:04:25;;;;;;;2.13;0.57;;;16.10;99.90;;;;;;5014377;28;20029;-75
2022/06/14 05:07:05;;;;;;;1.50;0.60;;;16.10;99.90;;;;;;5013870;28;20045;-76
2022/06/14 05:09:41;;;;;;;1.42;0.45;;;16.10;99.90;;;;;;5012685;28;20025;-75
2022/06/14 05:12:25;;;;;;;0.98;0.38;;;16.00;99.90;;;;;;5012612;28;20161;-75
2022/06/14 05:14:59;;;;;;;1.60;0.60;;;16.10;99.90;;;;;;5012164;28;20042;-75
2022/06/14 05:17:39;;;;;;;1.15;0.38;;;16.00;99.90;;;;;;5012420;28;20459;-75
2022/06/14 05:20:18;;;;;;;2.30;0.50;;;16.00;99.90;;;;;;5013757;28;20022;-75
2022/06/14 05:23:24;;;;;;;1.42;0.40;;;15.90;99.90;;;;;;5011657;28;20093;-75
2022/06/14 05:26:20;;;;;;;1.52;0.40;;;15.80;99.90;;;;;;4970135;28;20038;-75
2022/06/14 05:28:49;;;;;;;1.80;0.68;;;15.70;99.90;;;;;;5011979;28;20017;-75
2022/06/14 05:31:44;;;;;;;3.72;0.90;;;15.70;99.90;;;;;;5012364;28;20033;-75
2022/06/14 05:34:27;;;;;;;3.00;0.80;;;15.70;99.90;;;;;;5011969;28;20021;-76
2022/06/14 05:37:03;;;;;;;3.17;0.80;;;15.60;99.90;;;;;;5013491;28;20085;-76
2022/06/14 05:40:02;;;;;;;4.20;1.15;;;15.50;99.90;;;;;;5011897;28;20109;-76
2022/06/14 05:42:40;;;;;;;3.08;0.90;;;15.30;99.90;;;;;;5013268;28;20097;-76
2022/06/14 05:45:10;;;;;;;3.78;1.33;;;15.30;99.90;;;;;;5013509;28;20097;-76
2022/06/14 05:47:43;;;;;;;2.13;0.85;;;15.20;99.90;;;;;;5011818;28;20439;-75
2022/06/14 05:50:34;;;;;;;5.60;1.10;;;15.20;99.90;;;;;;5011845;28;20030;-76
2022/06/14 05:53:19;;;;;;;3.35;1.02;;;15.10;99.90;;;;;;5011860;28;20149;-75
2022/06/14 05:55:55;;;;;;;4.78;1.30;;;15.00;99.90;;;;;;5011793;28;20036;-75
2022/06/14 05:58:41;;;;;;;3.17;1.30;;;14.90;99.90;;;;;;5011634;28;20393;-76
2022/06/14 06:01:19;;;;;;;4.15;1.58;;;14.80;99.90;;;;;;5011974;28;20037;-76
2022/06/14 06:04:10;;;;;;;5.03;1.55;;;14.70;99.90;;;;;;5013121;28;20040;-75
2022/06/14 06:06:42;;;;;;;5.18;1.50;;;14.60;99.90;;;;;;5011627;28;20022;-76
2022/06/14 06:10:08;;;;;;;5.72;1.55;;;14.50;99.90;;;;;;5011762;28;20026;-76
2022/06/14 06:12:40;;;;;;;7.20;1.50;;;14.40;99.90;;;;;;4933516;29;20048;-73
2022/06/14 06:15:27;;;;;;;5.63;1.92;;;14.30;99.90;;;;;;4933506;29;20039;-75
2022/06/14 06:18:02;;;;;;;2.88;1.60;;;14.20;99.90;;;;;;4985529;28;20168;-75
2022/06/14 06:20:40;;;;;;;5.32;1.50;;;14.10;99.90;;;;;;5012917;28;20029;-75
2022/06/14 06:23:13;;;;;;;4.25;1.80;;;14.00;99.90;;;;;;5011477;28;20022;-74
2022/06/14 06:25:53;;;;;;;4.75;1.52;;;13.90;99.90;;;;;;5010382;28;20034;-76
2022/06/14 06:28:27;;;;;;;5.10;1.73;;;13.80;99.90;;;;;;5012987;28;20026;-76
2022/06/14 06:31:07;;;;;;;6.85;1.70;;;13.70;99.90;;;;;;5011414;28;20062;-76
2022/06/14 06:33:40;;;;;;;3.58;1.40;;;13.60;99.90;;;;;;5011451;28;20026;-76
2022/06/14 06:36:40;;;;;;;4.10;1.35;;;13.50;99.90;;;;;;5016372;28;20034;-76
2022/06/14 06:39:25;;;;;;;4.68;1.35;;;13.30;99.90;;;;;;5015048;28;20057;-76
2022/06/14 06:42:00;;;;;;;4.38;1.45;;;13.30;99.90;;;;;;5015054;28;20363;-75
2022/06/14 06:44:43;;;;;;;5.85;1.77;;;13.10;99.90;;;;;;5015032;28;20026;-75
2022/06/14 06:47:17;;;;;;;4.40;1.60;;;13.00;99.90;;;;;;5016717;28;20018;-75
2022/06/14 06:49:56;;;;;;;6.03;2.72;;;13.00;99.90;;;;;;5015062;28;20030;-75
2022/06/14 06:52:43;;;;;;;6.97;1.52;;;12.90;99.90;;;;;;5015958;28;20042;-75
2022/06/14 06:55:17;;;;;;;3.92;1.63;;;12.80;99.90;;;;;;5016277;28;20478;-74
2022/06/14 06:57:49;;;;;;;5.93;1.92;;;12.70;99.90;;;;;;5014740;28;20032;-75
2022/06/14 07:00:19;;;;;;;6.43;2.00;;;12.60;99.90;;;;;;5014750;28;20030;-75
2022/06/14 07:02:48;;;;;;;;;;;12.60;99.90;;;;;;5015190;28;20018;-75
2022/06/14 07:05:17;;;;;;;6.38;1.90;;;12.50;99.90;;;;;;5016311;28;20484;-75
2022/06/14 07:07:52;;;;;;;5.50;1.65;;;12.40;99.90;;;;;;5015967;28;20049;-74
2022/06/14 07:10:23;;;;;;;6.20;2.10;;;12.30;99.90;;;;;;5016125;28;20018;-75
2022/06/14 07:13:27;;;;;;;4.20;1.92;;;12.20;99.90;;;;;;5014554;28;20049;-74
2022/06/14 07:16:06;;;;;;;4.40;1.77;;;12.20;99.90;;;;;;4936265;29;20055;-75
2022/06/14 07:19:16;;;;;;;7.00;2.13;;;12.10;99.90;;;;;;5006217;28;20124;-75
2022/06/14 07:21:53;;;;;;;6.00;2.60;;;12.00;99.90;;;;;;4995951;28;20046;-74
2022/06/14 07:24:29;;;;;;;7.93;2.00;;;12.00;99.90;;;;;;5014412;28;20053;-75
2022/06/14 07:27:09;;;;;;;7.32;2.30;;;12.00;99.90;;;;;;5014347;28;20022;-75
2022/06/14 07:29:42;;;;;;;6.47;2.10;;;11.80;99.90;;;;;;5015708;28;20017;-75
2022/06/14 07:32:16;;;;;;;4.50;1.98;;;11.80;99.90;;;;;;5015687;28;20025;-75
2022/06/14 07:34:45;;;;;;;6.78;2.08;;;11.70;99.90;;;;;;5014263;28;20022;-75
2022/06/14 07:37:21;;;;;;;6.18;2.58;;;11.70;99.90;;;;;;5015481;28;20474;-75
2022/06/14 07:40:02;;;;;;;6.30;2.08;;;11.70;99.90;;;;;;5015734;28;20427;-75
2022/06/14 07:42:55;;;;;;;7.25;2.80;;;11.70;99.90;;;;;;5014249;28;20041;-75
2022/06/14 07:45:33;;;;;;;6.47;2.63;;;11.60;99.90;;;;;;5004683;28;20109;-75
2022/06/14 07:48:08;;;;;;;6.93;2.60;;;11.60;99.90;;;;;;5013781;28;20410;-72
2022/06/14 07:51:10;;;;;;;8.25;3.08;;;11.60;99.90;;;;;;5015101;28;20080;-72
2022/06/14 07:54:05;;;;;;;6.55;3.85;;;11.50;99.90;;;;;;4985010;28;20175;-72
2022/06/14 07:56:42;;;;;;;9.25;3.35;;;11.50;99.90;;;;;;5006026;28;20053;-72
2022/06/14 07:59:14;;;;;;;10.45;3.90;;;11.50;99.90;;;;;;5015235;28;20029;-72
2022/06/14 08:01:51;;;;;;;11.48;5.32;;;11.40;99.90;;;;;;5013547;28;20029;-73
2022/06/14 08:04:31;;;;;;;14.65;5.80;;;11.40;99.90;;;;;;5013784;28;20026;-73
2022/06/14 08:07:05;;;;;;;19.30;8.80;;;11.30;99.90;;;;;;5015344;28;20026;-74
2022/06/14 08:10:13;;;;;;;14.75;5.15;;;11.30;99.90;;;;;;5014940;28;20066;-72
2022/06/14 08:13:01;;;;;;;12.40;4.82;;;11.30;99.90;;;;;;5013416;28;20442;-74
2022/06/14 08:15:34;;;;;;;11.23;4.13;;;11.30;99.90;;;;;;5015047;28;20441;-73
2022/06/14 08:18:36;;;;;;;10.40;3.75;;;11.20;99.90;;;;;;5013532;28;20458;-73
2022/06/14 08:21:09;;;;;;;12.57;5.05;;;11.20;99.90;;;;;;5014606;28;20029;-73
2022/06/14 08:23:48;;;;;;;14.43;5.72;;;11.10;99.90;;;;;;5014682;28;20363;-72
2022/06/14 08:26:44;;;;;;;14.10;5.05;;;11.10;99.90;;;;;;5013201;28;20367;-72
2022/06/14 08:29:29;;;;;;;11.80;4.60;;;11.10;99.90;;;;;;5013477;28;20033;-72
2022/06/14 08:32:09;;;;;;;14.65;4.63;;;11.10;99.90;;;;;;5013467;28;20030;-72
2022/06/14 08:34:51;;;;;;;9.03;4.13;;;11.10;99.90;;;;;;5014500;28;20022;-72
2022/06/14 08:37:56;;;;;;;9.85;4.30;;;11.10;99.90;;;;;;5012973;28;20037;-70
2022/06/14 08:40:49;;;;;;;11.38;5.15;;;11.00;99.90;;;;;;4995878;28;20045;-71
2022/06/14 08:43:49;;;;;;;8.18;3.80;;;11.10;99.90;;;;;;5014601;28;20026;-71
2022/06/14 08:47:02;;;;;;;11.88;4.57;;;11.10;99.90;;;;;;5014294;28;20530;-72
2022/06/14 08:50:13;;;;;;;14.60;4.60;;;10.90;99.90;;;;;;4990107;28;20540;-73
2022/06/14 08:53:02;;;;;;;10.85;4.45;;;10.90;99.90;;;;;;4988452;28;20072;-74
2022/06/14 08:55:47;;;;;;;8.20;4.18;;;10.90;99.90;;;;;;5014086;28;20034;-73
2022/06/14 08:58:21;;;;;;;9.30;4.80;;;10.80;99.90;;;;;;5013827;28;20025;-73
2022/06/14 09:01:09;;;;;;;9.68;3.65;;;10.90;99.90;;;;;;5012501;28;20032;-73
2022/06/14 09:04:05;;;;;;;10.68;4.55;;;10.80;99.90;;;;;;5012559;28;20105;-73
2022/06/14 09:06:50;;;;;;;9.77;4.22;;;10.80;99.90;;;;;;5012543;28;20524;-73
2022/06/14 09:09:46;;;;;;;10.35;4.15;;;10.80;99.90;;;;;;5014092;28;20030;-73
2022/06/14 09:12:41;;;;;;;9.82;4.47;;;10.80;99.90;;;;;;4985022;28;20038;-73
2022/06/14 09:15:17;;;;;;;13.27;4.40;;;10.80;99.90;;;;;;5013652;28;20463;-74
2022/06/14 09:18:16;;;;;;;12.95;4.35;;;10.70;99.90;;;;;;5012281;28;20058;-72
2022/06/14 09:21:08;;;;;;;11.68;5.38;;;10.70;99.90;;;;;;5011685;28;20032;-72
2022/06/14 09:23:57;;;;;;;10.85;4.45;;;10.70;99.90;;;;;;5012293;28;20029;-71
2022/06/14 09:26:52;;;;;;;9.38;4.30;;;10.60;99.90;;;;;;5012498;28;20033;-72
2022/06/14 09:29:46;;;;;;;11.77;4.53;;;10.60;99.90;;;;;;5013667;28;20386;-72
2022/06/14 09:32:32;;;;;;;13.18;4.88;;;10.60;99.90;;;;;;5013515;28;20072;-72
2022/06/14 09:35:26;;;;;;;12.15;4.63;;;10.50;99.90;;;;;;5013458;28;20072;-72
2022/06/14 09:38:18;;;;;;;9.05;4.55;;;10.50;99.90;;;;;;5011531;28;20040;-72
2022/06/14 09:40:48;;;;;;;7.63;3.70;;;10.40;99.90;;;;;;5011828;28;20075;-72
2022/06/14 09:43:43;;;;;;;10.90;4.20;;;10.30;99.90;;;;;;5011892;28;20390;-72
2022/06/14 09:46:41;;;;;;;9.98;4.97;;;10.30;99.90;;;;;;5013213;28;20025;-72
2022/06/14 09:49:53;;;;;;;18.13;6.80;;;10.30;99.90;;;;;;5011652;28;20441;-70
2022/06/14 09:52:50;;;;;;;8.75;4.22;;;10.30;99.90;;;;;;5013177;28;20539;-71
2022/06/14 09:55:31;;;;;;;13.77;4.68;;;10.20;99.90;;;;;;5013349;28;20221;-71
2022/06/14 09:58:13;;;;;;;9.70;5.32;;;10.20;99.90;;;;;;5011753;28;20026;-70
2022/06/14 10:01:02;;;;;;;9.93;4.70;;;10.20;99.90;;;;;;5013068;28;20034;-71
2022/06/14 10:03:57;;;;;;;11.02;5.40;;;10.10;99.90;;;;;;5011804;28;20022;-71
2022/06/14 10:06:58;;;;;;;11.98;4.68;;;10.10;99.90;;;;;;5013115;28;20098;-70
2022/06/14 10:09:53;;;;;;;8.63;4.57;;;10.00;99.90;;;;;;5012682;28;20026;-71
2022/06/14 10:12:41;;;;;;;11.00;4.88;;;10.00;99.90;;;;;;5015790;28;20030;-70
2022/06/14 10:15:24;;;;;;;9.80;4.75;;;10.00;99.90;;;;;;5015618;28;20045;-70
2022/06/14 10:18:19;;;;;;;8.40;5.00;;;9.90;99.90;;;;;;5017028;28;20133;-70
2022/06/14 10:21:08;;;;;;;14.02;5.15;;;9.90;99.90;;;;;;5017042;28;20058;-70
2022/06/14 10:24:03;;;;;;;9.68;4.82;;;9.80;99.90;;;;;;5017439;28;20053;-70
2022/06/14 10:29:58;;;;;;;9.90;4.85;;;9.70;99.90;;;;;;5016856;28;20052;-71
2022/06/14 10:32:47;;;;;;;8.27;5.18;;;9.70;99.90;;;;;;5015249;28;20026;-71
2022/06/14 10:35:24;;;;;;;12.25;4.93;;;9.70;99.90;;;;;;5017189;28;20504;-70
2022/06/14 10:38:09;;;;;;;12.15;5.45;;;9.70;99.90;;;;;;5016603;28;20018;-71
2022/06/14 10:41:01;;;;;;;12.70;6.55;;;9.60;99.90;;;;;;5014975;28;20112;-71
2022/06/14 10:43:50;;;;;;;12.38;5.88;;;9.60;99.90;;;;;;5016699;28;20025;-72
2022/06/14 10:46:26;;;;;;;9.93;5.90;;;9.70;99.90;;;;;;5016685;28;20104;-71
2022/06/14 10:49:05;;;;;;;8.45;4.72;;;9.70;99.90;;;;;;5016727;28;20018;-69
2022/06/14 10:51:41;;;;;;;9.43;4.68;;;9.80;99.90;;;;;;5016304;28;20081;-71
2022/06/14 10:54:23;;;;;;;7.93;4.45;;;9.80;99.90;;;;;;5016633;28;20029;-72
2022/06/14 10:57:05;;;;;;;7.65;4.00;;;9.80;99.90;;;;;;5016636;28;20371;-72
2022/06/14 11:00:01;;;;;;;6.82;3.78;;;9.80;99.90;;;;;;5016172;28;20033;-73
2022/06/14 11:03:05;;;;;;;6.93;3.63;;;9.80;99.90;;;;;;4986026;28;20112;-71
2022/06/14 11:05:57;;;;;;;6.82;4.00;;;9.80;99.90;;;;;;4935469;28;20034;-71
2022/06/14 11:09:01;;;;;;;6.55;3.65;;;9.80;99.90;;;;;;5016003;28;20494;-70
2022/06/14 11:11:46;;;;;;;6.85;3.40;;;9.80;99.90;;;;;;5003848;28;20034;-70
2022/06/14 11:14:16;;;;;;;5.90;3.03;;;9.80;99.90;;;;;;5015065;28;20112;-71
2022/06/14 11:17:16;;;;;;;3.67;2.85;;;9.90;99.90;;;;;;5014631;28;20025;-71
2022/06/14 11:20:10;;;;;;;5.50;2.80;;;9.90;99.90;;;;;;5014376;28;20120;-71
2022/06/14 11:22:50;;;;;;;4.78;2.33;;;9.90;99.90;;;;;;5013624;28;20025;-70
2022/06/14 11:25:29;;;;;;;6.18;2.10;;;9.90;99.90;;;;;;5016152;28;20101;-72
2022/06/14 11:28:21;;;;;;;4.30;1.80;;;9.90;99.90;;;;;;5015915;28;20032;-72
2022/06/14 11:31:24;;;;;;;3.15;2.03;;;9.90;99.90;;;;;;5014255;28;20036;-70
2022/06/14 11:33:55;;;;;;;5.13;2.03;;;9.80;99.90;;;;;;5014154;28;20033;-70
2022/06/14 11:36:46;;;;;;;2.25;1.80;;;9.80;99.90;;;;;;5015540;28;20397;-69
2022/06/14 11:39:41;;;;;;;3.28;2.20;;;9.80;99.90;;;;;;5014006;28;20034;-70
2022/06/14 11:42:46;;;;;;;5.57;2.15;;;9.80;99.90;;;;;;5015538;28;20030;-71
2022/06/14 11:45:50;;;;;;;4.20;2.55;;;9.70;99.90;;;;;;4998253;28;20084;-71
2022/06/14 11:48:21;;;;;;;6.10;2.47;;;9.70;99.90;;;;;;5015357;28;20466;-70
2022/06/14 11:51:05;;;;;;;5.00;3.08;;;9.70;99.90;;;;;;5013580;28;20113;-70
2022/06/14 11:53:41;;;;;;;4.03;2.65;;;9.60;99.90;;;;;;5013875;28;20058;-71
2022/06/14 11:56:17;;;;;;;6.03;2.90;;;9.60;99.90;;;;;;5014041;28;20034;-71
2022/06/14 11:59:13;;;;;;;7.47;2.90;;;9.60;99.90;;;;;;5015397;28;20478;-72
2022/06/14 12:02:07;;;;;;;6.03;3.40;;;9.50;99.90;;;;;;5013689;28;20061;-71
2022/06/14 12:04:38;;;;;;;4.60;3.10;;;9.40;99.90;;;;;;5014937;28;20026;-70
2022/06/14 12:07:14;;;;;;;5.40;3.42;;;9.30;99.90;;;;;;5013547;28;20030;-70
2022/06/14 12:09:50;;;;;;;3.67;2.67;;;9.20;99.90;;;;;;5013864;28;20068;-71
2022/06/14 12:12:58;;;;;;;3.88;2.42;;;9.10;99.90;;;;;;5013508;28;20022;-71
2022/06/14 12:16:04;;;;;;;4.00;2.55;;;9.10;99.90;;;;;;4935116;29;20028;-71
2022/06/14 12:18:37;;;;;;;4.82;2.80;;;9.00;99.90;;;;;;5014719;28;20044;-71
2022/06/14 12:21:42;;;;;;;3.45;2.20;;;9.00;99.90;;;;;;5013288;28;20029;-71
2022/06/14 12:24:17;;;;;;;3.92;3.15;;;9.00;99.90;;;;;;4973940;28;20045;-70
2022/06/14 12:26:48;;;;;;;4.57;2.70;;;9.00;99.90;;;;;;5013272;28;20026;-71
2022/06/14 12:29:23;;;;;;;6.25;3.00;;;8.90;99.90;;;;;;5013492;28;20026;-71
2022/06/14 12:32:11;;;;;;;4.80;2.45;;;8.90;99.90;;;;;;5014042;28;20064;-71
2022/06/14 12:34:59;;;;;;;3.30;2.22;;;8.90;99.90;;;;;;5014406;28;20108;-71
2022/06/14 12:37:40;;;;;;;4.97;2.97;;;8.90;99.90;;;;;;5012882;28;20030;-70
2022/06/14 12:40:15;;;;;;;4.10;2.67;;;8.90;99.90;;;;;;5012967;28;20029;-70
2022/06/14 12:42:54;;;;;;;5.53;2.50;;;8.80;99.90;;;;;;5014508;28;20052;-70
2022/06/14 12:45:29;;;;;;;4.82;2.70;;;8.80;99.90;;;;;;5014781;28;20032;-70
2022/06/14 12:48:12;;;;;;;3.22;2.47;;;8.80;99.90;;;;;;5014164;28;20104;-70
2022/06/14 12:50:50;;;;;;;8.05;2.70;;;8.70;99.90;;;;;;5012661;28;20053;-71
2022/06/14 12:53:51;;;;;;;4.68;2.33;;;8.70;99.90;;;;;;5012692;28;20034;-71
2022/06/14 12:56:19;;;;;;;;;;;8.70;99.90;;;;;;5013033;28;20375;-70
2022/06/14 12:59:15;;;;;;;5.20;3.03;;;8.60;99.90;;;;;;5013895;28;19937;-71
2022/06/14 13:02:12;;;;;;;4.15;2.58;;;8.60;99.90;;;;;;5013930;28;20033;-71
2022/06/14 13:04:53;;;;;;;7.13;2.80;;;8.60;99.90;;;;;;5014017;28;20177;-72
2022/06/14 13:07:48;;;;;;;4.57;2.17;;;8.50;99.90;;;;;;5014173;28;20034;-71
2022/06/14 13:10:52;;;;;;;3.38;2.03;;;8.50;99.90;;;;;;5012446;28;20028;-71
2022/06/14 13:13:30;;;;;;;2.10;1.90;;;8.40;99.90;;;;;;5013845;28;20097;-71
2022/06/14 13:16:41;;;;;;;3.47;2.03;;;8.40;99.90;;;;;;5012312;28;20045;-71
2022/06/14 13:19:17;;;;;;;;;;;8.40;99.90;;;;;;5012644;28;20145;-71
2022/06/14 13:22:23;;;;;;;4.20;2.80;;;8.40;99.90;;;;;;5012218;28;19906;-70
2022/06/14 13:25:07;;;;;;;3.10;1.95;;;8.30;99.90;;;;;;5011874;28;20070;-70
2022/06/14 13:28:01;;;;;;;2.80;2.00;;;8.30;99.90;;;;;;5012140;28;20034;-70
2022/06/14 13:30:59;;;;;;;3.20;1.73;;;8.30;99.90;;;;;;5012166;28;20030;-72
2022/06/14 13:33:41;;;;;;;3.67;2.03;;;8.30;99.90;;;;;;4985538;28;20064;-71
2022/06/14 13:36:12;;;;;;;2.42;1.83;;;8.20;99.90;;;;;;5012073;28;20026;-71
2022/06/14 13:38:54;;;;;;;3.10;2.00;;;8.20;99.90;;;;;;5013642;28;20018;-71
2022/06/14 13:42:00;;;;;;;2.97;1.80;;;8.10;99.90;;;;;;5012101;28;20045;-71
2022/06/14 13:44:38;;;;;;;2.38;1.50;;;8.10;99.90;;;;;;5012666;28;20100;-71
2022/06/14 13:47:40;;;;;;;2.33;1.48;;;8.10;99.90;;;;;;5012101;28;20018;-71
2022/06/14 13:50:25;;;;;;;2.45;1.80;;;8.10;99.90;;;;;;5000108;28;20053;-71
2022/06/14 13:52:58;;;;;;;1.83;1.60;;;8.10;99.90;;;;;;5011571;28;20049;-71
2022/06/14 13:55:31;;;;;;;2.80;2.15;;;8.20;99.90;;;;;;5011780;28;20025;-72
2022/06/14 13:58:09;;;;;;;2.83;2.00;;;8.30;99.90;;;;;;5011781;28;20026;-71
2022/06/14 14:00:53;;;;;;;3.22;2.17;;;8.20;99.90;;;;;;5011656;28;20026;-71
2022/06/14 14:03:48;;;;;;;3.58;1.85;;;8.20;99.90;;;;;;5013620;28;20101;-71
2022/06/14 14:06:27;;;;;;;2.88;2.05;;;8.20;99.90;;;;;;5011692;28;20026;-71
2022/06/14 14:09:04;;;;;;;2.78;1.95;;;8.20;99.90;;;;;;5011624;28;20026;-70
2022/06/14 14:11:48;;;;;;;4.13;1.88;;;8.00;99.90;;;;;;5011592;28;20106;-71
2022/06/14 14:14:53;;;;;;;2.20;2.00;;;8.10;99.90;;;;;;5013091;28;20100;-71
2022/06/14 14:17:20;;;;;;;5.85;2.20;;;8.00;99.90;;;;;;5012906;28;20382;-72
2022/06/14 14:19:54;;;;;;;3.10;2.08;;;7.90;99.90;;;;;;5012955;28;20109;-71